sensor_id;sensor_type;location;lat;lon;timestamp;temperature;humidity
18648;DHT22;9453;50.294;18.644;2022-12-07T05:02:47;3.40;99.90
18648;DHT22;9453;50.294;18.644;2022-12-07T05:05:14;3.40;99.90
18648;DHT22;9453;50.294;18.644;2022-12-07T05:07:41;3.40;99.90
18648;DHT22;9453;50.294;18.644;2022-12-07T05:10:09;3.50;99.90
18648;DHT22;9453;50.294;18.644;2022-12-07T05:12:36;3.40;99.90
18648;DHT22;9453;50.294;18.644;2022-12-07T05:15:04;3.50;99.90
18648;DHT22;9453;50.294;18.644;2022-12-07T05:17:31;3.40;99.90
18648;DHT22;9453;50.294;18.644;2022-12-07T05:20:00;3.40;99.90
18648;DHT22;9453;50.294;18.644;2022-12-07T05:22:27;3.40;99.90
18648;DHT22;9453;50.294;18.644;2022-12-07T05:24:54;3.40;99.90
18648;DHT22;9453;50.294;18.644;2022-12-07T05:27:21;3.30;99.90
18648;DHT22;9453;50.294;18.644;2022-12-07T05:29:49;3.40;99.90
18648;DHT22;9453;50.294;18.644;2022-12-07T05:32:17;3.40;99.90
18648;DHT22;9453;50.294;18.644;2022-12-07T05:34:44;3.40;99.90
18648;DHT22;9453;50.294;18.644;2022-12-07T05:37:13;3.40;99.90
18648;DHT22;9453;50.294;18.644;2022-12-07T05:39:41;3.40;99.90
18648;DHT22;9453;50.294;18.644;2022-12-07T05:42:08;3.40;99.90
18648;DHT22;9453;50.294;18.644;2022-12-07T05:44:38;3.40;99.90
18648;DHT22;9453;50.294;18.644;2022-12-07T05:47:05;3.40;99.90
18648;DHT22;9453;50.294;18.644;2022-12-07T05:49:33;3.40;99.90
18648;DHT22;9453;50.294;18.644;2022-12-07T05:52:00;3.40;99.90
18648;DHT22;9453;50.294;18.644;2022-12-07T05:54:28;3.40;99.90
18648;DHT22;9453;50.294;18.644;2022-12-07T05:56:55;3.40;99.90
18648;DHT22;9453;50.294;18.644;2022-12-07T05:59:22;3.40;99.90
18648;DHT22;9453;50.294;18.644;2022-12-07T06:01:49;3.40;99.90
18648;DHT22;9453;50.294;18.644;2022-12-07T06:04:16;3.40;99.90
18648;DHT22;9453;50.294;18.644;2022-12-07T06:06:43;3.30;99.90
18648;DHT22;9453;50.294;18.644;2022-12-07T06:09:10;3.30;99.90
18648;DHT22;9453;50.294;18.644;2022-12-07T06:11:41;3.30;99.90
18648;DHT22;9453;50.294;18.644;2022-12-07T06:14:26;3.30;99.90
18648;DHT22;9453;50.294;18.644;2022-12-07T06:16:53;3.30;99.90
18648;DHT22;9453;50.294;18.644;2022-12-07T06:19:20;3.30;99.90
18648;DHT22;9453;50.294;18.644;2022-12-07T06:21:47;3.30;99.90
18648;DHT22;9453;50.294;18.644;2022-12-07T06:24:16;3.30;99.90
18648;DHT22;9453;50.294;18.644;2022-12-07T06:26:45;3.30;99.90
18648;DHT22;9453;50.294;18.644;2022-12-07T06:29:12;3.30;99.90
18648;DHT22;9453;50.294;18.644;2022-12-07T06:31:39;3.30;99.90
18648;DHT22;9453;50.294;18.644;2022-12-07T06:34:09;3.20;99.90
18648;DHT22;9453;50.294;18.644;2022-12-07T06:36:37;3.20;99.90
18648;DHT22;9453;50.294;18.644;2022-12-07T06:39:05;3.20;99.90
18648;DHT22;9453;50.294;18.644;2022-12-07T06:41:32;3.20;99.90
18648;DHT22;9453;50.294;18.644;2022-12-07T06:44:00;3.30;99.90
18648;DHT22;9453;50.294;18.644;2022-12-07T06:46:27;3.30;99.90
18648;DHT22;9453;50.294;18.644;2022-12-07T06:48:54;3.30;99.90
18648;DHT22;9453;50.294;18.644;2022-12-07T06:51:24;3.30;99.90
18648;DHT22;9453;50.294;18.644;2022-12-07T06:53:51;3.30;99.90
18648;DHT22;9453;50.294;18.644;2022-12-07T06:56:18;3.30;99.90
18648;DHT22;9453;50.294;18.644;2022-12-07T06:58:45;3.30;99.90
18648;DHT22;9453;50.294;18.644;2022-12-07T07:01:15;3.30;99.90
18648;DHT22;9453;50.294;18.644;2022-12-07T07:03:42;3.40;99.90
18648;DHT22;9453;50.294;18.644;2022-12-07T07:06:09;3.40;99.90
18648;DHT22;9453;50.294;18.644;2022-12-07T07:08:38;3.40;99.90
18648;DHT22;9453;50.294;18.644;2022-12-07T07:11:05;3.40;99.90
18648;DHT22;9453;50.294;18.644;2022-12-07T07:13:33;3.40;99.90
18648;DHT22;9453;50.294;18.644;2022-12-07T07:16:00;3.40;99.90
18648;DHT22;9453;50.294;18.644;2022-12-07T07:18:28;3.40;99.90
18648;DHT22;9453;50.294;18.644;2022-12-07T07:20:55;3.40;99.90
18648;DHT22;9453;50.294;18.644;2022-12-07T07:23:22;3.50;99.90
18648;DHT22;9453;50.294;18.644;2022-12-07T07:25:49;3.40;99.90
18648;DHT22;9453;50.294;18.644;2022-12-07T07:28:17;3.40;99.90
18648;DHT22;9453;50.294;18.644;2022-12-07T07:30:44;3.50;99.90
18648;DHT22;9453;50.294;18.644;2022-12-07T07:33:11;3.50;99.90
18648;DHT22;9453;50.294;18.644;2022-12-07T07:35:40;3.60;99.90
18648;DHT22;9453;50.294;18.644;2022-12-07T07:38:07;3.50;99.90
18648;DHT22;9453;50.294;18.644;2022-12-07T07:40:35;3.60;99.90
18648;DHT22;9453;50.294;18.644;2022-12-07T07:43:02;3.70;99.90
18648;DHT22;9453;50.294;18.644;2022-12-07T07:45:29;3.80;99.90
18648;DHT22;9453;50.294;18.644;2022-12-07T07:47:56;3.70;99.90
18648;DHT22;9453;50.294;18.644;2022-12-07T07:50:23;3.70;99.90
18648;DHT22;9453;50.294;18.644;2022-12-07T07:52:52;3.80;99.90
18648;DHT22;9453;50.294;18.644;2022-12-07T07:55:19;3.90;99.90
18648;DHT22;9453;50.294;18.644;2022-12-07T07:57:45;3.90;99.90
18648;DHT22;9453;50.294;18.644;2022-12-07T08:00:14;3.90;99.90
18648;DHT22;9453;50.294;18.644;2022-12-07T08:02:42;4.00;99.90
18648;DHT22;9453;50.294;18.644;2022-12-07T08:05:10;4.00;99.90
18648;DHT22;9453;50.294;18.644;2022-12-07T08:07:37;4.00;99.90
18648;DHT22;9453;50.294;18.644;2022-12-07T08:10:08;4.10;99.90
18648;DHT22;9453;50.294;18.644;2022-12-07T08:12:37;4.00;99.90
18648;DHT22;9453;50.294;18.644;2022-12-07T08:15:25;4.00;99.90
18648;DHT22;9453;50.294;18.644;2022-12-07T08:17:53;4.00;99.90
18648;DHT22;9453;50.294;18.644;2022-12-07T08:20:20;4.00;99.90
18648;DHT22;9453;50.294;18.644;2022-12-07T08:22:47;4.00;99.90
18648;DHT22;9453;50.294;18.644;2022-12-07T08:25:16;4.10;99.90
18648;DHT22;9453;50.294;18.644;2022-12-07T08:27:43;4.10;99.90
18648;DHT22;9453;50.294;18.644;2022-12-07T08:30:10;4.10;99.90
18648;DHT22;9453;50.294;18.644;2022-12-07T08:32:37;4.20;99.90
18648;DHT22;9453;50.294;18.644;2022-12-07T08:35:05;4.10;99.90
18648;DHT22;9453;50.294;18.644;2022-12-07T08:37:32;4.20;99.90
18648;DHT22;9453;50.294;18.644;2022-12-07T08:39:59;4.20;99.90
18648;DHT22;9453;50.294;18.644;2022-12-07T08:42:27;4.20;99.90
18648;DHT22;9453;50.294;18.644;2022-12-07T08:44:55;4.20;99.90
18648;DHT22;9453;50.294;18.644;2022-12-07T08:47:23;4.20;99.90
18648;DHT22;9453;50.294;18.644;2022-12-07T08:49:52;4.20;99.90
18648;DHT22;9453;50.294;18.644;2022-12-07T08:52:20;4.30;99.90
18648;DHT22;9453;50.294;18.644;2022-12-07T08:54:48;4.30;99.90
18648;DHT22;9453;50.294;18.644;2022-12-07T08:57:15;4.30;99.90
18648;DHT22;9453;50.294;18.644;2022-12-07T08:59:43;4.30;99.90
18648;DHT22;9453;50.294;18.644;2022-12-07T09:02:10;4.30;99.90
18648;DHT22;9453;50.294;18.644;2022-12-07T09:04:37;4.40;99.90
18648;DHT22;9453;50.294;18.644;2022-12-07T09:07:05;4.40;99.90
18648;DHT22;9453;50.294;18.644;2022-12-07T09:09:32;4.40;99.90
18648;DHT22;9453;50.294;18.644;2022-12-07T09:11:59;4.40;99.90
18648;DHT22;9453;50.294;18.644;2022-12-07T09:14:26;4.40;99.90
18648;DHT22;9453;50.294;18.644;2022-12-07T09:16:54;4.40;99.90
18648;DHT22;9453;50.294;18.644;2022-12-07T09:19:21;4.40;99.90
18648;DHT22;9453;50.294;18.644;2022-12-07T09:21:47;4.50;99.90
18648;DHT22;9453;50.294;18.644;2022-12-07T09:24:14;4.50;99.90
18648;DHT22;9453;50.294;18.644;2022-12-07T09:26:41;4.60;99.90
18648;DHT22;9453;50.294;18.644;2022-12-07T09:29:09;4.70;99.90
18648;DHT22;9453;50.294;18.644;2022-12-07T09:31:37;4.80;99.90
18648;DHT22;9453;50.294;18.644;2022-12-07T09:34:05;4.80;99.90
18648;DHT22;9453;50.294;18.644;2022-12-07T09:36:33;4.90;99.90
18648;DHT22;9453;50.294;18.644;2022-12-07T09:39:01;4.90;99.90
18648;DHT22;9453;50.294;18.644;2022-12-07T09:41:31;5.00;99.90
18648;DHT22;9453;50.294;18.644;2022-12-07T09:44:03;4.90;99.90
18648;DHT22;9453;50.294;18.644;2022-12-07T09:46:33;4.90;99.90
18648;DHT22;9453;50.294;18.644;2022-12-07T09:49:01;4.90;99.90
18648;DHT22;9453;50.294;18.644;2022-12-07T09:51:31;4.90;99.90
18648;DHT22;9453;50.294;18.644;2022-12-07T09:53:58;4.90;99.90
18648;DHT22;9453;50.294;18.644;2022-12-07T09:56:29;5.00;99.90
18648;DHT22;9453;50.294;18.644;2022-12-07T09:58:59;5.00;99.90
18648;DHT22;9453;50.294;18.644;2022-12-07T10:01:31;5.00;99.90
18648;DHT22;9453;50.294;18.644;2022-12-07T10:04:08;5.10;99.90
18648;DHT22;9453;50.294;18.644;2022-12-07T10:06:38;5.00;99.90
18648;DHT22;9453;50.294;18.644;2022-12-07T10:09:09;5.00;99.90
18648;DHT22;9453;50.294;18.644;2022-12-07T10:11:58;5.00;99.90
18648;DHT22;9453;50.294;18.644;2022-12-07T10:14:27;5.00;99.90
18648;DHT22;9453;50.294;18.644;2022-12-07T10:16:55;5.00;99.90
18648;DHT22;9453;50.294;18.644;2022-12-07T10:19:24;5.00;99.90
18648;DHT22;9453;50.294;18.644;2022-12-07T10:22:09;5.10;99.90
18648;DHT22;9453;50.294;18.644;2022-12-07T10:24:37;5.10;99.90
18648;DHT22;9453;50.294;18.644;2022-12-07T10:27:18;5.10;99.90
18648;DHT22;9453;50.294;18.644;2022-12-07T10:29:48;5.10;99.90
18648;DHT22;9453;50.294;18.644;2022-12-07T10:32:31;5.10;99.90
18648;DHT22;9453;50.294;18.644;2022-12-07T10:35:20;5.10;99.90
18648;DHT22;9453;50.294;18.644;2022-12-07T10:37:49;5.00;99.90
18648;DHT22;9453;50.294;18.644;2022-12-07T10:40:32;5.10;99.90
18648;DHT22;9453;50.294;18.644;2022-12-07T10:43:17;5.10;99.90
18648;DHT22;9453;50.294;18.644;2022-12-07T10:46:07;5.00;99.90
18648;DHT22;9453;50.294;18.644;2022-12-07T10:48:42;5.20;99.90
18648;DHT22;9453;50.294;18.644;2022-12-07T10:51:17;5.00;99.90
18648;DHT22;9453;50.294;18.644;2022-12-07T10:53:57;5.00;99.90
18648;DHT22;9453;50.294;18.644;2022-12-07T10:59:51;5.10;99.90
18648;DHT22;9453;50.294;18.644;2022-12-07T11:05:26;5.20;99.90
18648;DHT22;9453;50.294;18.644;2022-12-07T11:08:02;5.20;99.90
18648;DHT22;9453;50.294;18.644;2022-12-07T11:10:39;5.20;99.90
18648;DHT22;9453;50.294;18.644;2022-12-07T11:13:36;5.30;99.90
18648;DHT22;9453;50.294;18.644;2022-12-07T11:16:21;5.50;99.90
18648;DHT22;9453;50.294;18.644;2022-12-07T11:19:03;5.50;99.90
18648;DHT22;9453;50.294;18.644;2022-12-07T11:21:40;5.60;99.90
18648;DHT22;9453;50.294;18.644;2022-12-07T11:24:12;5.60;99.90
18648;DHT22;9453;50.294;18.644;2022-12-07T11:27:07;5.70;99.90
18648;DHT22;9453;50.294;18.644;2022-12-07T11:32:52;5.50;99.90
18648;DHT22;9453;50.294;18.644;2022-12-07T11:35:29;5.50;99.90
18648;DHT22;9453;50.294;18.644;2022-12-07T11:38:01;5.40;99.90
18648;DHT22;9453;50.294;18.644;2022-12-07T11:40:31;5.40;99.90
18648;DHT22;9453;50.294;18.644;2022-12-07T11:43:11;5.40;99.90
18648;DHT22;9453;50.294;18.644;2022-12-07T11:45:42;5.40;99.90
18648;DHT22;9453;50.294;18.644;2022-12-07T11:48:14;5.40;99.90
18648;DHT22;9453;50.294;18.644;2022-12-07T11:50:46;5.40;99.90
18648;DHT22;9453;50.294;18.644;2022-12-07T11:53:18;5.40;99.90
18648;DHT22;9453;50.294;18.644;2022-12-07T11:55:49;5.50;99.90
18648;DHT22;9453;50.294;18.644;2022-12-07T11:58:38;5.60;99.90
18648;DHT22;9453;50.294;18.644;2022-12-07T12:01:14;5.70;99.90
18648;DHT22;9453;50.294;18.644;2022-12-07T12:03:47;5.90;99.90
18648;DHT22;9453;50.294;18.644;2022-12-07T12:06:14;6.00;99.90
18648;DHT22;9453;50.294;18.644;2022-12-07T12:08:46;6.10;99.90
18648;DHT22;9453;50.294;18.644;2022-12-07T12:11:24;6.00;99.90
18648;DHT22;9453;50.294;18.644;2022-12-07T12:14:11;6.00;99.90
18648;DHT22;9453;50.294;18.644;2022-12-07T12:17:03;5.90;99.90
18648;DHT22;9453;50.294;18.644;2022-12-07T12:19:37;5.90;99.90
18648;DHT22;9453;50.294;18.644;2022-12-07T12:22:11;5.90;99.90
18648;DHT22;9453;50.294;18.644;2022-12-07T12:24:40;5.80;99.90
18648;DHT22;9453;50.294;18.644;2022-12-07T12:27:10;5.80;99.90
18648;DHT22;9453;50.294;18.644;2022-12-07T12:29:44;5.80;99.90
18648;DHT22;9453;50.294;18.644;2022-12-07T12:32:14;5.80;99.90
18648;DHT22;9453;50.294;18.644;2022-12-07T12:35:00;5.80;99.90
18648;DHT22;9453;50.294;18.644;2022-12-07T12:37:43;5.80;99.90
18648;DHT22;9453;50.294;18.644;2022-12-07T12:40:40;5.80;99.90
18648;DHT22;9453;50.294;18.644;2022-12-07T12:49:34;5.80;99.90
18648;DHT22;9453;50.294;18.644;2022-12-07T12:55:17;5.70;99.90
18648;DHT22;9453;50.294;18.644;2022-12-07T12:57:47;5.70;99.90
18648;DHT22;9453;50.294;18.644;2022-12-07T13:00:19;5.60;99.90
18648;DHT22;9453;50.294;18.644;2022-12-07T13:02:49;5.60;99.90
18648;DHT22;9453;50.294;18.644;2022-12-07T13:05:20;5.50;99.90
18648;DHT22;9453;50.294;18.644;2022-12-07T13:07:56;5.50;99.90
18648;DHT22;9453;50.294;18.644;2022-12-07T13:10:36;5.50;99.90
18648;DHT22;9453;50.294;18.644;2022-12-07T13:16:40;5.50;99.90
18648;DHT22;9453;50.294;18.644;2022-12-07T13:22:42;5.60;99.90
18648;DHT22;9453;50.294;18.644;2022-12-07T13:25:12;5.70;99.90
18648;DHT22;9453;50.294;18.644;2022-12-07T13:27:41;5.80;99.90
18648;DHT22;9453;50.294;18.644;2022-12-07T13:30:14;5.80;99.90
18648;DHT22;9453;50.294;18.644;2022-12-07T13:32:51;5.80;99.90
18648;DHT22;9453;50.294;18.644;2022-12-07T13:35:29;5.70;99.90
18648;DHT22;9453;50.294;18.644;2022-12-07T13:37:56;5.60;99.90
18648;DHT22;9453;50.294;18.644;2022-12-07T13:40:24;5.50;99.90
18648;DHT22;9453;50.294;18.644;2022-12-07T13:42:57;5.50;99.90
18648;DHT22;9453;50.294;18.644;2022-12-07T13:45:26;5.50;99.90
18648;DHT22;9453;50.294;18.644;2022-12-07T13:48:21;5.40;99.90
18648;DHT22;9453;50.294;18.644;2022-12-07T13:50:56;5.30;99.90
18648;DHT22;9453;50.294;18.644;2022-12-07T13:53:24;5.30;99.90
18648;DHT22;9453;50.294;18.644;2022-12-07T13:55:53;5.20;99.90
18648;DHT22;9453;50.294;18.644;2022-12-07T13:58:22;5.20;99.90
18648;DHT22;9453;50.294;18.644;2022-12-07T14:00:49;5.20;99.90
18648;DHT22;9453;50.294;18.644;2022-12-07T14:03:29;5.10;99.90
18648;DHT22;9453;50.294;18.644;2022-12-07T14:06:24;5.10;99.90
18648;DHT22;9453;50.294;18.644;2022-12-07T14:09:14;5.10;99.90
18648;DHT22;9453;50.294;18.644;2022-12-07T14:11:43;5.00;99.90
18648;DHT22;9453;50.294;18.644;2022-12-07T14:14:15;5.10;99.90
18648;DHT22;9453;50.294;18.644;2022-12-07T14:16:43;5.10;99.90
18648;DHT22;9453;50.294;18.644;2022-12-07T14:19:46;5.00;99.90
18648;DHT22;9453;50.294;18.644;2022-12-07T14:22:31;5.00;99.90
18648;DHT22;9453;50.294;18.644;2022-12-07T14:25:17;5.00;99.90
18648;DHT22;9453;50.294;18.644;2022-12-07T14:27:49;4.90;99.90
18648;DHT22;9453;50.294;18.644;2022-12-07T14:30:17;4.90;99.90
18648;DHT22;9453;50.294;18.644;2022-12-07T14:32:45;4.90;99.90
18648;DHT22;9453;50.294;18.644;2022-12-07T14:35:16;4.90;99.90
18648;DHT22;9453;50.294;18.644;2022-12-07T14:37:46;4.90;99.90
18648;DHT22;9453;50.294;18.644;2022-12-07T14:40:16;4.90;99.90
18648;DHT22;9453;50.294;18.644;2022-12-07T14:42:44;4.90;99.90
18648;DHT22;9453;50.294;18.644;2022-12-07T14:45:17;4.90;99.90
18648;DHT22;9453;50.294;18.644;2022-12-07T14:47:44;4.90;99.90
18648;DHT22;9453;50.294;18.644;2022-12-07T14:50:12;4.80;99.90
18648;DHT22;9453;50.294;18.644;2022-12-07T14:52:43;4.70;99.90
18648;DHT22;9453;50.294;18.644;2022-12-07T14:55:15;4.70;99.90
18648;DHT22;9453;50.294;18.644;2022-12-07T14:57:43;4.70;99.90
18648;DHT22;9453;50.294;18.644;2022-12-07T15:00:14;4.60;99.90
18648;DHT22;9453;50.294;18.644;2022-12-07T15:02:42;4.70;99.90
18648;DHT22;9453;50.294;18.644;2022-12-07T15:05:10;4.60;99.90
18648;DHT22;9453;50.294;18.644;2022-12-07T15:07:37;4.60;99.90
18648;DHT22;9453;50.294;18.644;2022-12-07T15:10:14;4.60;99.90
18648;DHT22;9453;50.294;18.644;2022-12-07T15:12:41;4.60;99.90
18648;DHT22;9453;50.294;18.644;2022-12-07T15:15:09;4.40;99.90
18648;DHT22;9453;50.294;18.644;2022-12-07T15:17:36;4.60;99.90
18648;DHT22;9453;50.294;18.644;2022-12-07T15:20:05;4.60;99.90
18648;DHT22;9453;50.294;18.644;2022-12-07T15:22:32;4.60;99.90
18648;DHT22;9453;50.294;18.644;2022-12-07T15:24:59;4.60;99.90
18648;DHT22;9453;50.294;18.644;2022-12-07T15:27:30;4.50;99.90
18648;DHT22;9453;50.294;18.644;2022-12-07T15:29:57;4.60;99.90
18648;DHT22;9453;50.294;18.644;2022-12-07T15:32:23;4.60;99.90
18648;DHT22;9453;50.294;18.644;2022-12-07T15:34:50;4.60;99.90
18648;DHT22;9453;50.294;18.644;2022-12-07T15:37:17;4.60;99.90
18648;DHT22;9453;50.294;18.644;2022-12-07T15:39:44;4.60;99.90
18648;DHT22;9453;50.294;18.644;2022-12-07T15:42:16;4.50;99.90
18648;DHT22;9453;50.294;18.644;2022-12-07T15:44:44;4.50;99.90
18648;DHT22;9453;50.294;18.644;2022-12-07T15:47:28;4.50;99.90
18648;DHT22;9453;50.294;18.644;2022-12-07T15:49:55;4.50;99.90
18648;DHT22;9453;50.294;18.644;2022-12-07T15:52:22;4.40;99.90
18648;DHT22;9453;50.294;18.644;2022-12-07T15:54:49;4.40;99.90
18648;DHT22;9453;50.294;18.644;2022-12-07T15:57:16;4.30;99.90
18648;DHT22;9453;50.294;18.644;2022-12-07T15:59:44;4.30;99.90
18648;DHT22;9453;50.294;18.644;2022-12-07T16:02:13;4.20;99.90
18648;DHT22;9453;50.294;18.644;2022-12-07T16:04:40;4.20;99.90
18648;DHT22;9453;50.294;18.644;2022-12-07T16:07:07;4.20;99.90
18648;DHT22;9453;50.294;18.644;2022-12-07T16:09:35;4.10;99.90
18648;DHT22;9453;50.294;18.644;2022-12-07T16:12:03;4.10;99.90
18648;DHT22;9453;50.294;18.644;2022-12-07T16:14:30;4.20;99.90
18648;DHT22;9453;50.294;18.644;2022-12-07T16:17:00;4.20;99.90
18648;DHT22;9453;50.294;18.644;2022-12-07T16:19:27;4.30;99.90
18648;DHT22;9453;50.294;18.644;2022-12-07T16:21:53;4.20;99.90
18648;DHT22;9453;50.294;18.644;2022-12-07T16:24:20;4.20;99.90
18648;DHT22;9453;50.294;18.644;2022-12-07T16:26:48;4.20;99.90
18648;DHT22;9453;50.294;18.644;2022-12-07T16:29:16;4.20;99.90
18648;DHT22;9453;50.294;18.644;2022-12-07T16:31:43;4.30;99.90
18648;DHT22;9453;50.294;18.644;2022-12-07T16:34:11;4.30;99.90
18648;DHT22;9453;50.294;18.644;2022-12-07T16:36:39;4.30;99.90
18648;DHT22;9453;50.294;18.644;2022-12-07T16:39:06;4.30;99.90
18648;DHT22;9453;50.294;18.644;2022-12-07T16:41:33;4.20;99.90
18648;DHT22;9453;50.294;18.644;2022-12-07T16:44:02;4.30;99.90
18648;DHT22;9453;50.294;18.644;2022-12-07T16:46:30;4.30;99.90
18648;DHT22;9453;50.294;18.644;2022-12-07T16:48:57;4.30;99.90
18648;DHT22;9453;50.294;18.644;2022-12-07T16:51:26;4.30;99.90
18648;DHT22;9453;50.294;18.644;2022-12-07T16:53:53;4.20;99.90
18648;DHT22;9453;50.294;18.644;2022-12-07T16:56:20;4.30;99.90
18648;DHT22;9453;50.294;18.644;2022-12-07T16:58:47;4.30;99.90
18648;DHT22;9453;50.294;18.644;2022-12-07T17:01:17;4.30;99.90
18648;DHT22;9453;50.294;18.644;2022-12-07T17:03:44;4.30;99.90
18648;DHT22;9453;50.294;18.644;2022-12-07T17:06:13;4.30;99.90
18648;DHT22;9453;50.294;18.644;2022-12-07T17:08:42;4.30;99.90
18648;DHT22;9453;50.294;18.644;2022-12-07T17:11:11;4.30;99.90
18648;DHT22;9453;50.294;18.644;2022-12-07T17:13:39;4.30;99.90
18648;DHT22;9453;50.294;18.644;2022-12-07T17:16:23;4.40;99.90
18648;DHT22;9453;50.294;18.644;2022-12-07T17:18:50;4.30;99.90
18648;DHT22;9453;50.294;18.644;2022-12-07T17:21:18;4.30;99.90
18648;DHT22;9453;50.294;18.644;2022-12-07T17:23:47;4.40;99.90
18648;DHT22;9453;50.294;18.644;2022-12-07T17:26:15;4.40;99.90
18648;DHT22;9453;50.294;18.644;2022-12-07T17:28:43;4.40;99.90
18648;DHT22;9453;50.294;18.644;2022-12-07T17:31:12;4.40;99.90
18648;DHT22;9453;50.294;18.644;2022-12-07T17:33:39;4.40;99.90
18648;DHT22;9453;50.294;18.644;2022-12-07T17:36:10;4.40;99.90
18648;DHT22;9453;50.294;18.644;2022-12-07T17:38:37;4.40;99.90
18648;DHT22;9453;50.294;18.644;2022-12-07T17:41:21;4.40;99.90
18648;DHT22;9453;50.294;18.644;2022-12-07T17:44:04;4.40;99.90
18648;DHT22;9453;50.294;18.644;2022-12-07T17:46:31;4.40;99.90
18648;DHT22;9453;50.294;18.644;2022-12-07T17:48:59;4.40;99.90
18648;DHT22;9453;50.294;18.644;2022-12-07T17:51:26;4.50;99.90
18648;DHT22;9453;50.294;18.644;2022-12-07T17:54:11;4.50;99.90
18648;DHT22;9453;50.294;18.644;2022-12-07T17:56:41;4.50;99.90
18648;DHT22;9453;50.294;18.644;2022-12-07T17:59:09;4.50;99.90
18648;DHT22;9453;50.294;18.644;2022-12-07T18:01:36;4.50;99.90
18648;DHT22;9453;50.294;18.644;2022-12-07T18:04:04;4.50;99.90
18648;DHT22;9453;50.294;18.644;2022-12-07T18:06:31;4.40;99.90
18648;DHT22;9453;50.294;18.644;2022-12-07T18:08:59;4.50;99.90
18648;DHT22;9453;50.294;18.644;2022-12-07T18:11:26;4.30;99.90
18648;DHT22;9453;50.294;18.644;2022-12-07T18:13:55;4.30;99.90
18648;DHT22;9453;50.294;18.644;2022-12-07T18:16:23;4.30;99.90
18648;DHT22;9453;50.294;18.644;2022-12-07T18:18:52;4.30;99.90
18648;DHT22;9453;50.294;18.644;2022-12-07T18:21:21;4.30;99.90
18648;DHT22;9453;50.294;18.644;2022-12-07T18:23:51;4.30;99.90
18648;DHT22;9453;50.294;18.644;2022-12-07T18:26:19;4.10;99.90
18648;DHT22;9453;50.294;18.644;2022-12-07T18:28:48;4.20;99.90
18648;DHT22;9453;50.294;18.644;2022-12-07T18:31:16;4.20;99.90
18648;DHT22;9453;50.294;18.644;2022-12-07T18:33:45;4.20;99.90
18648;DHT22;9453;50.294;18.644;2022-12-07T18:36:14;4.20;99.90
18648;DHT22;9453;50.294;18.644;2022-12-07T18:38:41;4.20;99.90
18648;DHT22;9453;50.294;18.644;2022-12-07T18:41:10;4.20;99.90
18648;DHT22;9453;50.294;18.644;2022-12-07T18:43:37;4.20;99.90
18648;DHT22;9453;50.294;18.644;2022-12-07T18:46:09;4.10;99.90
18648;DHT22;9453;50.294;18.644;2022-12-07T18:48:39;4.10;99.90
18648;DHT22;9453;50.294;18.644;2022-12-07T18:51:08;4.10;99.90
18648;DHT22;9453;50.294;18.644;2022-12-07T18:53:36;4.10;99.90
18648;DHT22;9453;50.294;18.644;2022-12-07T18:56:05;4.10;99.90
18648;DHT22;9453;50.294;18.644;2022-12-07T18:58:33;4.10;99.90
18648;DHT22;9453;50.294;18.644;2022-12-07T19:01:00;4.10;99.90
18648;DHT22;9453;50.294;18.644;2022-12-07T19:03:27;4.10;99.90
18648;DHT22;9453;50.294;18.644;2022-12-07T19:05:57;4.10;99.90
18648;DHT22;9453;50.294;18.644;2022-12-07T19:08:24;4.10;99.90
18648;DHT22;9453;50.294;18.644;2022-12-07T19:10:51;4.10;99.90
18648;DHT22;9453;50.294;18.644;2022-12-07T19:13:18;4.10;99.90
18648;DHT22;9453;50.294;18.644;2022-12-07T19:15:45;4.10;99.90
18648;DHT22;9453;50.294;18.644;2022-12-07T19:18:12;4.10;99.90
18648;DHT22;9453;50.294;18.644;2022-12-07T19:20:39;4.10;99.90
18648;DHT22;9453;50.294;18.644;2022-12-07T19:23:07;4.10;99.90
18648;DHT22;9453;50.294;18.644;2022-12-07T19:25:34;4.20;99.90
18648;DHT22;9453;50.294;18.644;2022-12-07T19:28:04;4.20;99.90
18648;DHT22;9453;50.294;18.644;2022-12-07T19:30:32;4.20;99.90
18648;DHT22;9453;50.294;18.644;2022-12-07T19:32:59;4.20;99.90
18648;DHT22;9453;50.294;18.644;2022-12-07T19:35:26;4.10;99.90
18648;DHT22;9453;50.294;18.644;2022-12-07T19:37:53;4.10;99.90
18648;DHT22;9453;50.294;18.644;2022-12-07T19:40:22;4.20;99.90
18648;DHT22;9453;50.294;18.644;2022-12-07T19:42:49;4.10;99.90
18648;DHT22;9453;50.294;18.644;2022-12-07T19:45:16;4.10;99.90
18648;DHT22;9453;50.294;18.644;2022-12-07T19:47:43;4.00;99.90
18648;DHT22;9453;50.294;18.644;2022-12-07T19:50:10;3.90;99.90
18648;DHT22;9453;50.294;18.644;2022-12-07T19:52:37;3.80;99.90
18648;DHT22;9453;50.294;18.644;2022-12-07T19:55:04;3.80;99.90
18648;DHT22;9453;50.294;18.644;2022-12-07T19:57:33;3.80;99.90
18648;DHT22;9453;50.294;18.644;2022-12-07T20:00:00;3.70;99.90
18648;DHT22;9453;50.294;18.644;2022-12-07T20:02:30;3.70;99.90
18648;DHT22;9453;50.294;18.644;2022-12-07T20:04:57;3.70;99.90
18648;DHT22;9453;50.294;18.644;2022-12-07T20:07:25;3.70;99.90
18648;DHT22;9453;50.294;18.644;2022-12-07T20:09:52;3.70;99.90
18648;DHT22;9453;50.294;18.644;2022-12-07T20:12:19;3.70;99.90
18648;DHT22;9453;50.294;18.644;2022-12-07T20:15:05;3.70;99.90
18648;DHT22;9453;50.294;18.644;2022-12-07T20:17:32;3.70;99.90
18648;DHT22;9453;50.294;18.644;2022-12-07T20:19:59;3.70;99.90
18648;DHT22;9453;50.294;18.644;2022-12-07T20:22:27;3.70;99.90
18648;DHT22;9453;50.294;18.644;2022-12-07T20:24:54;3.60;99.90
18648;DHT22;9453;50.294;18.644;2022-12-07T20:27:21;3.70;99.90
18648;DHT22;9453;50.294;18.644;2022-12-07T20:29:48;3.70;99.90
18648;DHT22;9453;50.294;18.644;2022-12-07T20:32:17;3.80;99.90
18648;DHT22;9453;50.294;18.644;2022-12-07T20:34:44;3.70;99.90
18648;DHT22;9453;50.294;18.644;2022-12-07T20:37:11;3.70;99.90
18648;DHT22;9453;50.294;18.644;2022-12-07T20:39:38;3.70;99.90
18648;DHT22;9453;50.294;18.644;2022-12-07T20:42:05;3.70;99.90
18648;DHT22;9453;50.294;18.644;2022-12-07T20:44:50;3.60;99.90
18648;DHT22;9453;50.294;18.644;2022-12-07T20:47:18;3.60;99.90
18648;DHT22;9453;50.294;18.644;2022-12-07T20:49:45;3.50;99.90
18648;DHT22;9453;50.294;18.644;2022-12-07T20:52:12;3.40;99.90
18648;DHT22;9453;50.294;18.644;2022-12-07T20:54:39;3.40;99.90
18648;DHT22;9453;50.294;18.644;2022-12-07T20:57:06;3.50;99.90
18648;DHT22;9453;50.294;18.644;2022-12-07T20:59:34;3.50;99.90
18648;DHT22;9453;50.294;18.644;2022-12-07T21:02:00;3.60;99.90
18648;DHT22;9453;50.294;18.644;2022-12-07T21:04:29;3.60;99.90
18648;DHT22;9453;50.294;18.644;2022-12-07T21:06:56;3.60;99.90
18648;DHT22;9453;50.294;18.644;2022-12-07T21:09:25;3.60;99.90
18648;DHT22;9453;50.294;18.644;2022-12-07T21:11:52;3.70;99.90
18648;DHT22;9453;50.294;18.644;2022-12-07T21:14:20;3.60;99.90
18648;DHT22;9453;50.294;18.644;2022-12-07T21:16:47;3.60;99.90
18648;DHT22;9453;50.294;18.644;2022-12-07T21:19:14;3.70;99.90
18648;DHT22;9453;50.294;18.644;2022-12-07T21:21:45;3.60;99.90
18648;DHT22;9453;50.294;18.644;2022-12-07T21:24:11;3.60;99.90
18648;DHT22;9453;50.294;18.644;2022-12-07T21:26:38;3.50;99.90
18648;DHT22;9453;50.294;18.644;2022-12-07T21:29:07;3.60;99.90
18648;DHT22;9453;50.294;18.644;2022-12-07T21:31:34;3.50;99.90